Time;durP1;ratioP1;P1;durP2;ratioP2;P2;SDS_P1;SDS_P2;PMS_P1;PMS_P2;Temp;Humidity;BMP_temperature;BMP_pressure;BME280_temperature;BME280_humidity;BME280_pressure;Samples;Min_cycle;Max_cycle;Signal;HPM_P1;HPM_P2
2023/03/19 00:02:00;;;;;;;56.37;30.17;;;;;;;8.71;100.00;34668.47;5139238;27;20183;-59
2023/03/19 00:04:27;;;;;;;51.40;29.73;;;;;;;8.65;100.00;34664.75;5139660;27;20201;-59
2023/03/19 00:06:56;;;;;;;49.70;29.40;;;;;;;8.76;100.00;34671.25;5139439;27;20741;-59
2023/03/19 00:09:23;;;;;;;52.17;29.13;;;;;;;8.78;100.00;34994.47;5139407;27;20572;-59
2023/03/19 00:11:50;;;;;;;44.60;28.57;;;;;;;8.83;100.00;38219.53;5139478;27;20247;-58
2023/03/19 00:14:17;;;;;;;51.03;28.77;;;;;;;8.83;100.00;41766.91;5139437;27;20186;-59
2023/03/19 00:16:44;;;;;;;51.50;30.70;;;;;;;8.83;100.00;44348.78;5138966;27;20189;-58
2023/03/19 00:19:11;;;;;;;53.53;29.90;;;;;;;8.62;100.00;43364.94;5139483;27;20190;-58
2023/03/19 00:21:38;;;;;;;51.60;29.07;;;;;;;8.66;100.00;44336.31;5138998;27;20174;-59
2023/03/19 00:24:07;;;;;;;49.50;29.33;;;;;;;8.54;100.00;38199.84;5139275;27;20182;-59
2023/03/19 00:26:34;;;;;;;48.93;30.20;;;;;;;8.67;100.00;38531.28;5139041;27;20182;-60
2023/03/19 00:29:02;;;;;;;49.70;28.50;;;;;;;8.67;100.00;39820.59;5138866;27;20182;-58
2023/03/19 00:31:29;;;;;;;49.47;28.40;;;;;;;8.67;100.00;40143.00;5139254;27;20183;-58
2023/03/19 00:33:58;;;;;;;48.50;29.07;;;;;;;8.74;100.00;43696.53;5139418;27;20201;-59
2023/03/19 00:36:26;;;;;;;51.10;28.47;;;;;;;8.68;100.00;43046.81;5139307;27;20251;-59
2023/03/19 00:38:52;;;;;;;48.03;28.17;;;;;;;8.48;100.00;38518.28;5139080;27;20193;-59
2023/03/19 00:41:21;;;;;;;53.33;29.07;;;;;;;8.34;100.00;38186.28;5138780;27;20189;-58
2023/03/19 00:43:53;;;;;;;49.73;29.57;;;;;;;8.28;100.00;33677.47;5136262;27;20187;-59
2023/03/19 00:46:19;;;;;;;47.90;28.87;;;;;;;8.63;100.00;35951.56;5135647;27;20187;-59
2023/03/19 00:48:46;;;;;;;51.20;28.47;;;;;;;8.40;100.00;40123.81;5136019;27;20562;-59
2023/03/19 00:51:13;;;;;;;49.80;28.93;;;;;;;8.73;100.00;40146.56;5135442;27;20203;-59
2023/03/19 00:53:42;;;;;;;44.67;27.10;;;;;;;8.64;100.00;46272.16;5135471;27;20191;-59
2023/03/19 00:56:09;;;;;;;49.60;28.70;;;;;;;8.63;100.00;46594.34;5135553;27;20711;-59
2023/03/19 00:58:39;;;;;;;52.00;28.60;;;;;;;8.52;100.00;42711.69;5135286;27;20187;-58
2023/03/19 01:01:07;;;;;;;47.30;27.90;;;;;;;8.37;100.00;40443.94;5135591;27;20274;-58
2023/03/19 01:03:34;;;;;;;42.83;28.73;;;;;;;8.41;100.00;39157.81;5135462;27;20190;-58
2023/03/19 01:06:01;;;;;;;47.27;29.10;;;;;;;8.58;100.00;40781.41;5135202;27;20186;-59
2023/03/19 01:08:29;;;;;;;48.53;27.93;;;;;;;8.52;100.00;42712.06;5135554;27;20637;-59
2023/03/19 01:10:56;;;;;;;44.40;26.83;;;;;;;8.54;100.00;42068.06;5135003;27;20298;-59
2023/03/19 01:13:23;;;;;;;42.03;28.20;;;;;;;8.66;100.00;43368.00;5135336;27;20643;-59
2023/03/19 01:15:53;;;;;;;41.97;26.67;;;;;;;8.70;100.00;41112.22;5135317;27;20210;-58
2023/03/19 01:18:20;;;;;;;47.43;27.50;;;;;;;8.91;100.00;44032.50;5134862;27;20777;-59
2023/03/19 01:20:47;;;;;;;41.87;26.70;;;;;;;8.93;100.00;49851.81;5135103;27;20187;-60
2023/03/19 01:23:13;;;;;;;48.83;29.43;;;;;;;9.00;100.00;55361.81;5134833;27;20183;-58
2023/03/19 01:25:40;;;;;;;45.00;28.13;;;;;;;9.01;100.00;60876.69;5135190;27;20196;-59
2023/03/19 01:28:07;;;;;;;43.93;27.27;;;;;;;8.89;100.00;59566.22;5135098;27;20179;-59
2023/03/19 01:30:34;;;;;;;39.73;26.93;;;;;;;8.75;100.00;57930.03;5134574;27;20206;-58
2023/03/19 01:33:02;;;;;;;40.63;27.70;;;;;;;9.03;100.00;60878.28;5134882;27;20474;-58
2023/03/19 01:35:29;;;;;;;40.30;27.17;;;;;;;8.90;100.00;63136.97;5134547;27;20178;-58
2023/03/19 01:37:56;;;;;;;47.60;27.87;;;;;;;8.83;100.00;59559.50;5134864;27;20316;-59
2023/03/19 01:40:23;;;;;;;43.90;27.60;;;;;;;8.84;100.00;58588.09;5134869;27;20651;-60
2023/03/19 01:43:07;;;;;;;42.47;26.80;;;;;;;8.70;100.00;57926.00;5134771;27;20193;-59
2023/03/19 01:45:36;;;;;;;41.60;26.67;;;;;;;8.66;100.00;60191.59;5134467;27;20186;-59
2023/03/19 01:48:06;;;;;;;47.90;27.10;;;;;;;8.59;100.00;60183.75;5134617;27;20641;-58
2023/03/19 01:50:40;;;;;;;39.83;26.87;;;;;;;8.69;100.00;61492.38;5134269;27;20242;-59
2023/03/19 01:53:08;;;;;;;43.40;27.43;;;;;;;8.76;100.00;58904.19;5134539;27;20195;-58
2023/03/19 01:55:36;;;;;;;45.77;27.97;;;;;;;8.76;100.00;59227.97;5134025;27;20655;-58
2023/03/19 01:58:03;;;;;;;41.10;26.53;;;;;;;8.70;100.00;60520.13;5134287;27;20187;-59
2023/03/19 02:00:31;;;;;;;43.77;26.70;;;;;;;8.69;100.00;59870.41;5134137;27;20179;-58
2023/03/19 02:03:01;;;;;;;40.40;27.77;;;;;;;8.65;100.00;56300.81;5134569;27;20232;-58
2023/03/19 02:05:30;;;;;;;40.60;26.80;;;;;;;8.76;100.00;53072.50;5134234;27;20263;-59
2023/03/19 02:08:03;;;;;;;48.70;27.87;;;;;;;8.86;100.00;54700.44;5134200;27;20565;-59
2023/03/19 02:10:30;;;;;;;39.17;26.07;;;;;;;8.79;100.00;58906.75;5134169;27;20210;-58
2023/03/19 02:12:57;;;;;;;45.03;28.23;;;;;;;8.99;100.00;64446.75;5133818;27;20190;-59
2023/03/19 02:15:24;;;;;;;41.30;26.77;;;;;;;8.82;100.00;67677.00;5133780;27;20193;-59
2023/03/19 02:17:51;;;;;;;42.53;26.53;;;;;;;8.79;100.00;68974.78;5133866;27;20593;-59
2023/03/19 02:20:26;;;;;;;41.13;26.43;;;;;;;8.71;100.00;61818.47;5133664;27;20279;-59
2023/03/19 02:23:06;;;;;;;40.93;25.93;;;;;;;8.57;100.00;57588.41;5133926;27;20768;-59
2023/03/19 02:25:40;;;;;;;44.13;27.67;;;;;;;8.76;100.00;60200.97;5133614;27;20183;-59
2023/03/19 02:28:09;;;;;;;41.43;27.13;;;;;;;8.69;100.00;57276.81;5133492;27;20195;-59
2023/03/19 02:30:37;;;;;;;41.50;27.50;;;;;;;8.65;100.00;56624.31;5133881;27;20283;-58
2023/03/19 02:33:04;;;;;;;43.97;28.20;;;;;;;8.76;100.00;56311.09;5133498;27;20194;-60
2023/03/19 02:35:34;;;;;;;41.80;27.13;;;;;;;8.70;100.00;59222.81;5133368;27;20202;-58
2023/03/19 02:38:04;;;;;;;44.57;26.87;;;;;;;8.45;100.00;57900.88;5133364;27;20183;-59
2023/03/19 02:40:36;;;;;;;42.90;26.37;;;;;;;8.67;100.00;49182.94;5133323;27;20183;-59
2023/03/19 02:43:03;;;;;;;46.70;27.13;;;;;;;8.64;100.00;49503.22;5133467;27;20189;-58
2023/03/19 02:45:32;;;;;;;42.33;27.07;;;;;;;8.68;100.00;49830.03;5133277;27;20194;-58
2023/03/19 02:47:59;;;;;;;43.70;27.50;;;;;;;8.74;100.00;51775.66;5133556;27;20502;-58
2023/03/19 02:50:26;;;;;;;42.23;27.67;;;;;;;8.79;100.00;52751.09;5133401;27;20708;-59
2023/03/19 02:52:53;;;;;;;46.93;28.40;;;;;;;8.78;100.00;55664.59;5133114;27;20187;-59
2023/03/19 02:55:20;;;;;;;46.20;27.50;;;;;;;8.59;100.00;54351.94;5133535;27;20530;-58
2023/03/19 02:57:47;;;;;;;40.37;26.47;;;;;;;8.51;100.00;51431.91;5133293;27;20248;-59
2023/03/19 03:00:17;;;;;;;46.63;28.97;;;;;;;8.70;100.00;51772.94;5132958;27;20186;-59
2023/03/19 03:02:46;;;;;;;46.57;26.83;;;;;;;8.58;100.00;48205.19;5133147;27;20191;-58
2023/03/19 03:05:13;;;;;;;41.73;26.50;;;;;;;8.61;100.00;50794.44;5132885;27;20187;-59
2023/03/19 03:07:42;;;;;;;43.47;27.70;;;;;;;8.69;100.00;56304.75;5132665;27;20187;-58
2023/03/19 03:10:10;;;;;;;43.63;27.13;;;;;;;8.53;100.00;52404.56;5132792;27;20217;-59
2023/03/19 03:12:37;;;;;;;42.63;26.70;;;;;;;8.68;100.00;51447.63;5133225;27;20187;-59
2023/03/19 03:15:05;;;;;;;47.20;27.23;;;;;;;8.63;100.00;50149.44;5132785;27;20240;-59
2023/03/19 03:17:32;;;;;;;44.73;27.70;;;;;;;8.40;100.00;48190.41;5132553;27;20238;-60
2023/03/19 03:20:00;;;;;;;46.37;26.63;;;;;;;8.41;100.00;45930.22;5133123;27;20648;-59
2023/03/19 03:22:27;;;;;;;43.30;25.03;;;;;;;8.52;100.00;48523.69;5132674;27;20194;-59
2023/03/19 03:24:55;;;;;;;44.77;26.87;;;;;;;8.73;100.00;50157.34;5133000;27;20183;-59
2023/03/19 03:27:21;;;;;;;43.37;26.33;;;;;;;8.70;100.00;50802.44;5132648;27;20187;-59
2023/03/19 03:29:48;;;;;;;43.60;26.30;;;;;;;8.64;100.00;51120.56;5132637;28;20187;-59
2023/03/19 03:32:16;;;;;;;39.37;24.67;;;;;;;8.62;100.00;51118.75;5132829;28;20577;-59
2023/03/19 03:34:44;;;;;;;40.63;24.70;;;;;;;8.55;100.00;52405.94;5132932;28;20644;-59
2023/03/19 03:37:13;;;;;;;45.60;25.97;;;;;;;8.63;100.00;51119.22;5132856;28;20671;-58
2023/03/19 03:39:41;;;;;;;42.97;26.77;;;;;;;8.45;100.00;54015.03;5132497;28;20191;-60
2023/03/19 03:42:08;;;;;;;45.53;24.93;;;;;;;8.44;100.00;52396.34;5132712;28;20277;-60
2023/03/19 03:44:36;;;;;;;39.73;23.80;;;;;;;8.45;100.00;52396.81;5133006;28;20542;-59
2023/03/19 03:47:03;;;;;;;43.77;25.33;;;;;;;8.52;100.00;52403.66;5132824;28;20191;-58
2023/03/19 03:49:30;;;;;;;36.53;24.00;;;;;;;8.45;100.00;54986.09;5132488;28;20187;-59
2023/03/19 03:51:57;;;;;;;35.70;21.97;;;;;;;8.56;100.00;54672.84;5132706;28;20198;-60
2023/03/19 03:54:25;;;;;;;38.57;23.70;;;;;;;8.41;100.00;58544.91;5132377;28;20190;-60
2023/03/19 03:56:54;;;;;;;39.10;23.87;;;;;;;8.58;100.00;61480.13;5132422;28;20187;-59
2023/03/19 03:59:21;;;;;;;35.27;22.93;;;;;;;8.46;100.00;60494.97;5132729;28;20652;-58
2023/03/19 04:01:48;;;;;;;37.63;22.80;;;;;;;8.62;100.00;56945.81;5132325;28;20190;-59
2023/03/19 04:04:15;;;;;;;31.70;21.97;;;;;;;8.63;100.00;55974.44;5132840;28;20199;-58
2023/03/19 04:06:42;;;;;;;34.37;21.93;;;;;;;8.70;100.00;58898.56;5132620;28;20233;-59
2023/03/19 04:09:09;;;;;;;35.50;22.47;;;;;;;8.67;100.00;62463.22;5132603;28;20557;-58
2023/03/19 04:11:37;;;;;;;30.57;20.33;;;;;;;8.58;100.00;66675.28;5132656;28;20230;-59
2023/03/19 04:14:05;;;;;;;31.00;20.50;;;;;;;8.60;100.00;71229.50;5132220;28;20222;-58
2023/03/19 04:16:33;;;;;;;32.00;20.93;;;;;;;8.67;100.00;72214.41;5132227;28;20218;-58
2023/03/19 04:19:00;;;;;;;31.37;19.23;;;;;;;8.66;100.00;73840.94;5133246;27;20747;-58
2023/03/19 04:21:28;;;;;;;27.20;20.17;;;;;;;8.59;100.00;72203.84;5136075;27;20179;-58
2023/03/19 04:23:55;;;;;;;29.93;20.33;;;;;;;8.66;100.00;69285.09;5135949;27;20247;-58
2023/03/19 04:26:22;;;;;;;33.13;19.67;;;;;;;8.52;100.00;59528.03;5135936;27;20186;-59
2023/03/19 04:28:50;;;;;;;26.23;18.97;;;;;;;8.55;100.00;59531.63;5136193;27;20210;-60
2023/03/19 04:31:17;;;;;;;29.50;19.47;;;;;;;8.60;100.00;62455.66;5136154;27;20753;-58
2023/03/19 04:33:44;;;;;;;30.07;18.90;;;;;;;8.61;100.00;63755.09;5136085;27;20179;-59
2023/03/19 04:36:11;;;;;;;28.90;18.37;;;;;;;8.59;100.00;65376.44;5135811;27;20230;-58
2023/03/19 04:38:38;;;;;;;27.60;19.13;;;;;;;8.74;100.00;67342.59;5084719;27;20187;-59
2023/03/19 04:41:05;;;;;;;29.10;19.67;;;;;;;8.68;100.00;70587.97;5135648;27;20220;-58
2023/03/19 04:43:32;;;;;;;26.17;19.70;;;;;;;8.74;100.00;70920.06;5135723;27;20284;-60
2023/03/19 04:46:00;;;;;;;28.60;19.20;;;;;;;8.76;100.00;70271.75;5135649;27;20239;-59
2023/03/19 04:48:27;;;;;;;28.97;19.43;;;;;;;8.62;100.00;66030.06;5136119;27;20187;-59
2023/03/19 04:50:55;;;;;;;31.27;20.40;;;;;;;8.74;100.00;66368.16;5135740;27;20203;-58
2023/03/19 04:53:22;;;;;;;30.30;20.40;;;;;;;8.74;100.00;69944.00;5135934;27;20179;-59
2023/03/19 04:55:50;;;;;;;29.77;19.37;;;;;;;8.63;100.00;72209.44;5135390;27;20243;-58
2023/03/19 04:58:17;;;;;;;31.20;20.23;;;;;;;8.58;100.00;63427.16;5135786;27;20187;-58
2023/03/19 05:00:45;;;;;;;36.10;21.80;;;;;;;8.65;100.00;59866.25;5135629;27;20645;-58
2023/03/19 05:03:14;;;;;;;31.00;20.80;;;;;;;8.64;100.00;62785.09;5135610;27;20247;-60
2023/03/19 05:05:42;;;;;;;32.97;21.07;;;;;;;8.71;100.00;62143.00;5135250;27;20256;-59
2023/03/19 05:08:09;;;;;;;33.00;20.50;;;;;;;8.69;100.00;62790.53;5135395;27;20187;-59
2023/03/19 05:10:37;;;;;;;32.27;22.00;;;;;;;8.76;100.00;64095.81;5135117;27;20186;-59
2023/03/19 05:13:04;;;;;;;33.33;20.43;;;;;;;8.59;100.00;66676.44;5135396;27;20182;-58
2023/03/19 05:15:31;;;;;;;35.23;21.17;;;;;;;8.56;100.00;67647.22;5134968;27;20244;-58
2023/03/19 05:17:58;;;;;;;27.87;20.10;;;;;;;8.77;100.00;66046.03;5134863;27;20245;-58
2023/03/19 05:20:27;;;;;;;26.53;18.83;;;;;;;8.81;100.00;70277.81;5134937;27;20186;-60
2023/03/19 05:22:54;;;;;;;29.87;18.63;;;;;;;8.70;100.00;73846.03;5134854;27;20189;-58
2023/03/19 05:25:21;;;;;;;30.00;19.47;;;;;;;8.87;100.00;75822.03;5135119;27;20657;-59
2023/03/19 05:27:48;;;;;;;25.40;18.70;;;;;;;8.85;100.00;78427.13;5134692;27;20195;-59
2023/03/19 05:30:17;;;;;;;27.87;20.07;;;;;;;8.84;100.00;84301.69;5134363;27;20223;-59
2023/03/19 05:32:45;;;;;;;24.33;17.93;;;;;;;8.84;100.00;90188.38;5135012;27;20202;-63
2023/03/19 05:35:12;;;;;;;25.83;18.80;;;;;;;8.93;100.00;87583.91;5134978;27;20641;-59
2023/03/19 05:37:41;;;;;;;25.70;18.67;;;;;;;9.02;100.00;89561.50;5085016;27;20220;-59
2023/03/19 05:40:09;;;;;;;24.03;18.10;;;;;;;8.82;100.00;90185.31;5134869;27;20638;-59
2023/03/19 05:42:36;;;;;;;33.73;18.10;;;;;;;8.82;100.00;88548.59;5134777;27;20179;-58
2023/03/19 05:45:04;;;;;;;24.30;17.27;;;;;;;9.03;100.00;90872.56;5134961;27;20708;-59
2023/03/19 05:47:31;;;;;;;24.00;17.00;;;;;;;8.93;100.00;98394.31;5134749;27;20274;-58
2023/03/19 05:49:58;;;;;;;20.57;16.00;;;;;;;8.87;100.00;101009.75;5134633;27;20303;-59
2023/03/19 05:52:25;;;;;;;28.97;18.03;;;;;;;8.93;100.00;106277.59;5134529;27;20202;-59
2023/03/19 05:54:53;;;;;;;19.07;16.03;;;;;;;9.04;100.00;114529.81;5134482;27;20628;-59
2023/03/19 05:57:20;;;;;;;19.97;16.50;;;;;;;9.07;100.00;117505.19;5134189;27;20185;-60
2023/03/19 05:59:47;;;;;;;19.03;16.70;;;;;;;9.12;100.00;118174.28;5134501;27;20183;-58
2023/03/19 06:02:13;;;;;;;21.23;15.77;;;;;;;9.38;100.00;126160.53;5134305;27;20633;-60
2023/03/19 06:04:40;;;;;;;19.40;16.27;;;;;;;9.38;100.00;131470.09;5134464;27;20663;-59
2023/03/19 06:07:07;;;;;;;17.03;15.23;;;;;;;9.55;100.00;146362.88;5133986;27;20186;-59
2023/03/19 06:09:34;;;;;;;16.30;13.80;;;;;;;9.19;100.00;148353.41;5134227;27;20193;-58
2023/03/19 06:12:02;;;;;;;16.13;14.07;;;;;;;9.34;100.00;148390.00;5134052;27;20202;-58
2023/03/19 06:14:30;;;;;;;16.83;13.30;;;;;;;9.32;100.00;148384.97;5134199;27;20183;-59
2023/03/19 06:16:57;;;;;;;15.20;13.73;;;;;;;9.38;100.00;148401.34;5133615;27;20274;-58
2023/03/19 06:19:24;;;;;;;15.00;13.60;;;;;;;9.44;100.00;148415.25;5134085;27;20265;-60
2023/03/19 06:21:52;;;;;;;15.00;13.47;;;;;;;9.43;100.00;148414.00;5134028;27;20527;-59
2023/03/19 06:24:19;;;;;;;13.90;12.57;;;;;;;9.61;100.00;148458.22;5133949;27;20260;-58
2023/03/19 06:26:46;;;;;;;13.70;12.27;;;;;;;9.54;100.00;148441.81;5133976;27;20630;-59
2023/03/19 06:29:14;;;;;;;13.20;12.10;;;;;;;9.47;100.00;148422.81;5133629;27;20278;-59
2023/03/19 06:31:41;;;;;;;14.33;11.87;;;;;;;9.42;100.00;148411.47;5133452;27;20211;-59
2023/03/19 06:34:08;;;;;;;12.83;11.37;;;;;;;9.53;100.00;148438.00;5133683;27;20195;-59
2023/03/19 06:36:35;;;;;;;12.77;11.10;;;;;;;9.50;100.00;148431.72;5133409;27;20183;-59
2023/03/19 06:39:02;;;;;;;12.13;11.23;;;;;;;9.39;100.00;148403.91;5133600;27;20210;-59
2023/03/19 06:41:28;;;;;;;11.27;10.27;;;;;;;9.43;100.00;148412.72;5132538;27;20274;-59
2023/03/19 06:43:55;;;;;;;12.30;11.30;;;;;;;9.44;100.00;148416.53;5133718;27;20191;-59
2023/03/19 06:46:23;;;;;;;21.50;11.27;;;;;;;9.41;100.00;148408.97;5133261;27;20218;-59
2023/03/19 06:48:50;;;;;;;12.40;11.40;;;;;;;9.65;100.00;148468.31;5133556;27;20648;-59
2023/03/19 06:51:17;;;;;;;11.97;11.07;;;;;;;9.68;100.00;148474.59;5133028;27;20183;-58
2023/03/19 06:53:44;;;;;;;12.13;10.93;;;;;;;9.66;100.00;148470.84;5133250;27;20194;-59
2023/03/19 06:56:11;;;;;;;10.53;9.77;;;;;;;9.36;100.00;148396.34;5133442;27;20243;-58
2023/03/19 06:58:38;;;;;;;11.33;10.53;;;;;;;9.38;100.00;148401.34;5082124;27;20186;-60
2023/03/19 07:01:05;;;;;;;11.50;10.43;;;;;;;9.51;100.00;148432.94;5133017;27;20240;-58
2023/03/19 07:03:33;;;;;;;10.23;9.57;;;;;;;9.40;100.00;148406.44;5133357;27;20198;-58
2023/03/19 07:06:00;;;;;;;9.73;9.23;;;;;;;9.26;100.00;148369.78;5133254;27;20186;-59
2023/03/19 07:08:28;;;;;;;11.20;10.43;;;;;;;9.21;100.00;148358.44;5132947;27;20277;-61
2023/03/19 07:10:55;;;;;;;10.07;9.17;;;;;;;9.62;100.00;148462.03;5132908;27;20185;-59
2023/03/19 07:13:22;;;;;;;10.90;9.57;;;;;;;9.51;100.00;148434.19;5133259;27;20233;-59
2023/03/19 07:15:49;;;;;;;10.07;9.17;;;;;;;9.42;100.00;148411.47;5133002;27;20191;-58
2023/03/19 07:18:16;;;;;;;10.20;9.60;;;;;;;9.48;100.00;148426.63;5132567;27;20222;-59
2023/03/19 07:20:44;;;;;;;10.20;9.50;;;;;;;9.49;100.00;148427.91;5132767;27;20261;-59
2023/03/19 07:23:11;;;;;;;10.73;9.83;;;;;;;9.56;100.00;148446.84;5132987;27;20190;-59
2023/03/19 07:25:38;;;;;;;11.00;10.07;;;;;;;9.68;100.00;148474.59;5132822;27;20187;-58
2023/03/19 07:28:05;;;;;;;10.70;9.90;;;;;;;9.83;100.00;148512.53;5132994;27;20616;-58
2023/03/19 07:30:32;;;;;;;10.47;9.77;;;;;;;9.77;100.00;148498.63;5132993;27;20649;-58
2023/03/19 07:32:59;;;;;;;10.40;9.70;;;;;;;9.87;100.00;148523.91;5132607;28;20214;-60
2023/03/19 07:35:25;;;;;;;10.80;9.90;;;;;;;9.80;100.00;148506.19;5132820;28;20189;-59
2023/03/19 07:37:54;;;;;;;9.80;9.23;;;;;;;9.99;100.00;148554.22;5132533;28;20190;-58
2023/03/19 07:40:21;;;;;;;9.47;8.77;;;;;;;9.68;100.00;148474.59;5132532;28;20187;-59
2023/03/19 07:42:48;;;;;;;9.93;9.27;;;;;;;9.55;100.00;148444.31;5132863;28;20179;-59
2023/03/19 07:45:15;;;;;;;9.27;8.67;;;;;;;9.58;100.00;148451.91;5114572;28;20644;-58
2023/03/19 07:47:42;;;;;;;13.70;9.60;;;;;;;9.67;100.00;148472.13;5132879;28;20557;-60
2023/03/19 07:50:10;;;;;;;9.17;8.67;;;;;;;9.76;100.00;148496.09;5132764;28;20685;-59
2023/03/19 07:52:37;;;;;;;10.43;9.53;;;;;;;9.96;100.00;148546.66;5133369;27;20711;-59
2023/03/19 07:55:06;;;;;;;9.37;8.77;;;;;;;9.38;100.00;148401.34;5136570;27;20190;-58
2023/03/19 07:57:32;;;;;;;9.90;9.10;;;;;;;9.39;100.00;148403.91;5136817;27;20629;-59
2023/03/19 07:59:59;;;;;;;10.10;9.30;;;;;;;9.09;100.00;148328.13;5136504;27;20198;-58
2023/03/19 08:02:26;;;;;;;9.57;8.97;;;;;;;8.90;100.00;148280.19;5136455;27;20178;-59
2023/03/19 08:04:54;;;;;;;9.97;8.97;;;;;;;8.94;100.00;148290.28;5136422;27;20183;-59
2023/03/19 08:07:21;;;;;;;9.77;9.03;;;;;;;9.15;100.00;148344.56;5136645;27;20629;-59
2023/03/19 08:09:48;;;;;;;10.37;9.67;;;;;;;9.27;100.00;148373.59;5136312;27;20190;-60
2023/03/19 08:12:16;;;;;;;10.30;9.50;;;;;;;9.12;100.00;148335.75;5136123;27;20208;-58
2023/03/19 08:14:43;;;;;;;10.03;9.23;;;;;;;9.21;100.00;148357.22;5136146;27;20182;-58
2023/03/19 08:17:10;;;;;;;9.87;9.00;;;;;;;9.47;100.00;148424.09;5136265;27;20260;-60
2023/03/19 08:19:37;;;;;;;9.10;8.50;;;;;;;9.37;100.00;148398.88;5136386;27;20231;-58
2023/03/19 08:22:04;;;;;;;9.00;8.50;;;;;;;9.53;100.00;148438.00;5136399;27;20178;-58
2023/03/19 08:24:31;;;;;;;9.63;8.83;;;;;;;9.58;100.00;148451.91;5136113;27;20210;-59
2023/03/19 08:26:58;;;;;;;9.50;8.87;;;;;;;9.84;100.00;148515.06;5136033;27;20193;-59
2023/03/19 08:29:27;;;;;;;9.70;9.10;;;;;;;9.83;100.00;148512.53;5136019;27;20183;-58
2023/03/19 08:31:54;;;;;;;10.13;9.53;;;;;;;10.10;100.00;148580.72;5136158;27;20625;-59
2023/03/19 08:34:22;;;;;;;9.33;8.83;;;;;;;10.08;100.00;148576.97;5136076;27;20578;-59
2023/03/19 08:36:51;;;;;;;8.73;8.23;;;;;;;10.07;100.00;148574.44;5135802;27;20183;-59
2023/03/19 08:39:19;;;;;;;8.57;8.03;;;;;;;10.05;100.00;148568.13;5136030;27;20187;-59
2023/03/19 08:41:46;;;;;;;8.67;8.17;;;;;;;10.43;100.00;148662.94;5135763;27;20183;-59
2023/03/19 08:44:12;;;;;;;8.70;8.20;;;;;;;10.84;100.00;148766.59;5117517;27;20183;-59
2023/03/19 08:46:42;;;;;;;9.13;8.50;;;;;;;11.08;100.00;148824.75;5135599;27;20193;-58
2023/03/19 08:49:09;;;;;;;9.40;8.70;;;;;;;11.61;100.00;148957.56;5135586;27;20195;-59
2023/03/19 08:51:36;;;;;;;8.33;7.83;;;;;;;12.44;100.00;149165.13;5135539;27;20191;-60
2023/03/19 08:54:03;;;;;;;7.90;7.50;;;;;;;12.53;100.00;149187.94;5135402;27;20247;-59
2023/03/19 08:56:30;;;;;;;8.87;8.27;;;;;;;12.68;100.00;149225.94;5135745;27;20621;-60
2023/03/19 08:58:57;;;;;;;8.80;8.40;;;;;;;12.57;100.00;149199.31;5135569;27;20621;-59
2023/03/19 09:01:23;;;;;;;8.63;7.97;;;;;;;12.72;100.00;149237.34;5135716;27;20191;-59
2023/03/19 09:03:52;;;;;;;9.80;9.20;;;;;;;12.88;100.00;149275.31;5135454;27;20213;-58
2023/03/19 09:06:18;;;;;;;9.70;9.00;;;;;;;12.98;100.00;149301.91;5134905;27;20179;-59
2023/03/19 09:08:45;;;;;;;9.53;8.93;;;;;;;12.95;100.00;149293.03;5135661;27;20569;-59
2023/03/19 09:11:13;;;;;;;8.57;8.10;;;;;;;13.04;100.00;149317.09;5135428;27;20183;-59
2023/03/19 09:13:40;;;;;;;8.23;7.83;;;;;;;12.87;100.00;149274.03;5127116;27;20637;-59
2023/03/19 09:16:07;;;;;;;15.23;7.73;;;;;;;12.28;100.00;149125.91;5134680;27;20251;-59
2023/03/19 09:18:35;;;;;;;7.97;7.40;;;;;;;11.99;100.00;149052.50;5134203;27;20230;-58
2023/03/19 09:21:04;;;;;;;9.67;8.10;;;;;;;11.98;100.00;149051.25;5134985;27;20187;-58
2023/03/19 09:23:30;;;;;;;8.50;8.00;;;;;;;12.13;100.00;149087.97;5134391;27;20187;-59
2023/03/19 09:25:57;;;;;;;9.10;8.40;;;;;;;12.25;100.00;149119.59;5134767;27;20227;-58
2023/03/19 09:28:25;;;;;;;7.67;7.27;;;;;;;12.22;100.00;149111.97;5116833;27;20182;-58
2023/03/19 09:30:52;;;;;;;7.23;6.83;;;;;;;12.19;100.00;149104.41;5134517;27;20218;-59
2023/03/19 09:33:20;;;;;;;7.53;7.23;;;;;;;12.46;100.00;149171.50;5134890;27;20229;-60
2023/03/19 09:35:53;;;;;;;8.00;7.60;;;;;;;12.64;100.00;149215.81;5133928;27;20193;-59
2023/03/19 09:38:22;;;;;;;8.27;7.77;;;;;;;12.61;100.00;149208.19;5134802;27;20186;-58
2023/03/19 09:41:02;;;;;;;8.60;8.10;;;;;;;12.85;100.00;149269.00;5134074;27;20534;-59
2023/03/19 09:43:52;;;;;;;8.00;7.60;;;;;;;12.96;100.00;149296.84;5134693;27;20179;-60
2023/03/19 09:46:24;;;;;;;7.83;7.43;;;;;;;12.39;100.00;149153.75;5131910;27;20203;-59
2023/03/19 09:48:56;;;;;;;8.53;7.93;;;;;;;12.65;100.00;149219.59;5133689;27;20230;-60
2023/03/19 09:51:30;;;;;;;7.97;7.43;;;;;;;12.65;100.00;149219.59;5133902;27;20187;-59
2023/03/19 09:54:01;;;;;;;8.23;7.83;;;;;;;12.48;100.00;149175.25;5134651;27;20764;-59
2023/03/19 09:56:28;;;;;;;8.07;7.57;;;;;;;12.99;100.00;149304.41;5134185;27;20277;-60
2023/03/19 09:58:55;;;;;;;7.90;7.50;;;;;;;12.95;100.00;149294.28;5134120;27;20179;-59
2023/03/19 10:01:26;;;;;;;9.20;8.70;;;;;;;13.14;100.00;149342.50;5134203;27;20186;-59
2023/03/19 10:04:17;;;;;;;8.33;7.80;;;;;;;13.32;100.00;149385.56;5134453;27;20198;-59
2023/03/19 10:06:45;;;;;;;9.40;8.80;;;;;;;13.34;100.00;149391.88;5133721;27;20209;-59
2023/03/19 10:09:39;;;;;;;8.57;8.17;;;;;;;13.33;100.00;149388.06;5134190;27;20183;-59
2023/03/19 10:12:22;;;;;;;9.50;8.83;;;;;;;13.15;100.00;149345.00;5134426;27;20190;-59
2023/03/19 10:15:10;;;;;;;9.60;9.10;;;;;;;13.08;100.00;149325.94;5133993;27;20183;-59
2023/03/19 10:17:40;;;;;;;9.03;8.53;;;;;;;13.13;100.00;149338.69;5133964;27;20772;-59
2023/03/19 10:20:13;;;;;;;10.73;9.80;;;;;;;13.13;100.00;149338.69;5133238;27;20190;-59
2023/03/19 10:22:46;;;;;;;8.97;8.53;;;;;;;13.14;100.00;149342.50;5134011;27;20191;-59
2023/03/19 10:25:21;;;;;;;9.13;8.63;;;;;;;13.24;100.00;149366.53;5133669;27;20222;-59
2023/03/19 10:27:54;;;;;;;9.27;8.77;;;;;;;13.15;100.00;149345.00;5133530;27;20182;-59
2023/03/19 10:30:22;;;;;;;9.93;9.30;;;;;;;13.06;100.00;149320.91;5133190;27;20209;-58
2023/03/19 10:32:54;;;;;;;9.27;8.57;;;;;;;13.04;100.00;149315.81;5133777;27;20203;-58
2023/03/19 10:35:24;;;;;;;9.70;8.97;;;;;;;13.25;100.00;149369.06;5115617;27;20233;-59
2023/03/19 10:37:53;;;;;;;9.87;8.97;;;;;;;12.86;100.00;149270.25;5133215;27;20255;-59
2023/03/19 10:40:26;;;;;;;10.37;9.67;;;;;;;13.16;100.00;149347.53;5133667;27;20175;-60
2023/03/19 10:43:07;;;;;;;10.80;10.03;;;;;;;13.17;100.00;149350.06;5133336;27;20190;-59
2023/03/19 10:45:35;;;;;;;10.30;9.73;;;;;;;13.24;100.00;149366.53;5133570;27;20270;-58
2023/03/19 10:48:04;;;;;;;10.47;9.90;;;;;;;13.28;100.00;149377.94;5132637;27;20183;-60
2023/03/19 10:50:35;;;;;;;9.97;9.40;;;;;;;13.45;100.00;149419.72;5133466;27;20645;-58
2023/03/19 10:53:07;;;;;;;10.67;10.13;;;;;;;13.18;100.00;149352.63;5133169;27;20206;-59
2023/03/19 10:55:36;;;;;;;10.37;9.80;;;;;;;12.99;100.00;149304.41;5115333;27;20179;-58
2023/03/19 10:58:06;;;;;;;11.83;10.87;;;;;;;12.99;100.00;149303.16;5133501;27;20182;-60
2023/03/19 11:00:34;;;;;;;14.80;11.80;;;;;;;13.03;100.00;149313.28;5132984;27;20282;-58
2023/03/19 11:03:04;;;;;;;11.73;10.83;;;;;;;13.04;100.00;149317.09;5132896;27;20198;-58
2023/03/19 11:05:33;;;;;;;12.13;11.03;;;;;;;12.90;100.00;149281.63;5132886;27;20240;-59
2023/03/19 11:08:03;;;;;;;11.47;10.47;;;;;;;12.95;100.00;149293.03;5131921;27;20190;-59
2023/03/19 11:10:32;;;;;;;11.23;10.40;;;;;;;12.87;100.00;149274.03;5114524;27;20293;-57
2023/03/19 11:13:08;;;;;;;10.93;10.33;;;;;;;12.47;100.00;149172.75;5132189;27;20206;-58
2023/03/19 11:15:39;;;;;;;10.83;10.13;;;;;;;12.39;100.00;149152.50;5133691;27;20191;-58
2023/03/19 11:18:08;;;;;;;11.30;10.60;;;;;;;12.63;100.00;149213.25;5132649;27;20233;-59
2023/03/19 11:20:37;;;;;;;10.60;10.00;;;;;;;12.81;100.00;149258.88;5133256;27;20182;-59
2023/03/19 11:23:12;;;;;;;11.47;10.77;;;;;;;12.98;100.00;149301.91;5132338;27;20645;-58